createdAt,value
2019-01-09T00:01:30.546Z,3.60
2019-01-09T00:03:59.817Z,5.10
2019-01-09T00:06:29.161Z,4.07
2019-01-09T00:08:58.312Z,6.10
2019-01-09T00:11:27.554Z,4.67
2019-01-09T00:13:56.847Z,5.03
2019-01-09T00:16:26.076Z,5.87
2019-01-09T00:18:55.399Z,5.23
2019-01-09T00:21:24.609Z,7.27
2019-01-09T00:23:53.770Z,4.90
2019-01-09T00:26:22.923Z,2.93
2019-01-09T00:28:52.076Z,4.73
2019-01-09T00:31:21.284Z,5.53
2019-01-09T00:33:50.396Z,7.97
2019-01-09T00:36:19.562Z,4.50
2019-01-09T00:38:48.694Z,4.63
2019-01-09T00:41:17.816Z,3.53
2019-01-09T00:43:47.052Z,3.37
2019-01-09T00:46:16.246Z,5.73
2019-01-09T00:48:45.430Z,4.00
2019-01-09T00:51:14.646Z,2.97
2019-01-09T00:53:43.858Z,3.80
2019-01-09T00:56:13.119Z,3.83
2019-01-09T00:58:42.438Z,5.33
2019-01-09T01:01:11.896Z,4.53
2019-01-09T01:04:11.560Z,5.77
2019-01-09T01:07:10.854Z,4.43
2019-01-09T01:10:13.323Z,3.07
2019-01-09T01:13:26.404Z,3.87
2019-01-09T01:16:35.322Z,3.70
2019-01-09T01:19:48.786Z,3.60
2019-01-09T01:22:53.481Z,4.63
2019-01-09T01:25:57.435Z,4.70
2019-01-09T01:29:10.616Z,3.80
2019-01-09T01:32:19.807Z,6.70
2019-01-09T01:35:25.487Z,5.10
2019-01-09T01:38:31.176Z,3.93
2019-01-09T01:41:43.378Z,2.93
2019-01-09T01:44:41.171Z,6.43
2019-01-09T01:47:37.827Z,4.47
2019-01-09T01:50:32.920Z,7.90
2019-01-09T01:53:47.166Z,5.33
2019-01-09T01:56:50.784Z,5.03
2019-01-09T02:00:07.626Z,5.83
2019-01-09T02:03:16.122Z,9.13
2019-01-09T02:06:14.028Z,6.97
2019-01-09T02:09:13.882Z,4.17
2019-01-09T02:12:05.139Z,6.17
2019-01-09T02:15:00.348Z,5.03
2019-01-09T02:17:52.154Z,4.63
2019-01-09T02:21:01.392Z,4.37
2019-01-09T02:23:57.274Z,9.33
2019-01-09T02:26:54.186Z,7.13
2019-01-09T02:29:38.178Z,6.70
2019-01-09T02:32:35.901Z,6.10
2019-01-09T02:35:05.343Z,4.63
2019-01-09T02:37:34.558Z,9.93
2019-01-09T02:40:03.679Z,5.37
2019-01-09T02:42:32.833Z,6.30
2019-01-09T02:45:02.007Z,2.57
2019-01-09T02:47:31.220Z,6.23
2019-01-09T02:50:01.035Z,4.43
2019-01-09T02:52:30.350Z,3.90
2019-01-09T02:54:59.630Z,4.57
2019-01-09T02:57:28.907Z,4.53
2019-01-09T02:59:58.095Z,5.87
2019-01-09T03:02:27.299Z,4.60
2019-01-09T03:04:56.454Z,2.47
2019-01-09T03:07:25.588Z,3.47
2019-01-09T03:09:54.766Z,6.77
2019-01-09T03:12:23.910Z,4.10
2019-01-09T03:14:53.096Z,5.53
2019-01-09T03:17:22.358Z,3.33
2019-01-09T03:19:51.682Z,5.00
2019-01-09T03:22:20.843Z,3.50
2019-01-09T03:24:50.004Z,3.70
2019-01-09T03:27:19.144Z,5.93
2019-01-09T03:29:48.378Z,3.83
2019-01-09T03:32:17.703Z,3.50
2019-01-09T03:34:47.001Z,3.37
2019-01-09T03:37:16.214Z,3.97
2019-01-09T03:39:45.464Z,2.90
2019-01-09T03:42:14.733Z,3.63
2019-01-09T03:44:43.870Z,2.90
2019-01-09T03:47:13.037Z,4.47
2019-01-09T03:49:42.423Z,2.60
2019-01-09T03:52:11.684Z,7.00
2019-01-09T03:54:40.904Z,6.83
2019-01-09T03:57:10.029Z,3.47
2019-01-09T03:59:39.151Z,4.60
2019-01-09T04:02:08.323Z,4.90
2019-01-09T04:04:37.458Z,7.50
2019-01-09T04:07:06.666Z,1.70
2019-01-09T04:09:35.906Z,1.83
2019-01-09T04:12:05.090Z,5.00
2019-01-09T04:14:34.293Z,1.90
2019-01-09T04:17:03.515Z,1.73
2019-01-09T04:19:32.738Z,2.63
2019-01-09T04:22:10.082Z,4.00
2019-01-09T04:24:38.883Z,2.17
2019-01-09T04:27:08.030Z,2.47
2019-01-09T04:29:37.294Z,3.17
2019-01-09T04:32:06.496Z,3.20
2019-01-09T04:34:35.646Z,2.33
2019-01-09T04:37:04.857Z,2.50
2019-01-09T04:39:34.027Z,2.93
2019-01-09T04:42:03.288Z,1.53
2019-01-09T04:44:32.544Z,3.43
2019-01-09T04:47:01.731Z,2.73
2019-01-09T04:49:31.022Z,1.40
2019-01-09T04:52:00.265Z,3.17
2019-01-09T04:54:29.561Z,2.20
2019-01-09T04:56:58.756Z,2.77
2019-01-09T04:59:28.209Z,1.83
2019-01-09T05:01:57.377Z,2.60
2019-01-09T05:04:26.705Z,4.20
2019-01-09T05:07:00.426Z,5.20
2019-01-09T05:09:26.950Z,2.27
2019-01-09T05:11:56.173Z,1.97
2019-01-09T05:14:25.417Z,2.10
2019-01-09T05:16:54.595Z,3.33
2019-01-09T05:19:32.937Z,1.43
2019-01-09T05:22:02.075Z,1.97
2019-01-09T05:24:31.258Z,5.20
2019-01-09T05:27:00.440Z,2.07
2019-01-09T05:29:29.710Z,2.23
2019-01-09T05:31:58.909Z,1.50
2019-01-09T05:34:28.132Z,3.83
2019-01-09T05:36:57.890Z,2.73
2019-01-09T05:39:27.325Z,4.70
2019-01-09T05:41:56.505Z,3.77
2019-01-09T05:44:25.767Z,4.77
2019-01-09T05:46:54.935Z,3.10
2019-01-09T05:49:24.243Z,2.50
2019-01-09T05:51:53.461Z,3.53
2019-01-09T05:54:22.710Z,3.80
2019-01-09T05:56:51.904Z,2.30
2019-01-09T05:59:21.080Z,4.30
2019-01-09T06:01:50.428Z,5.37
2019-01-09T06:04:19.655Z,4.03
2019-01-09T06:06:48.944Z,4.00
2019-01-09T06:09:18.167Z,3.10
2019-01-09T06:11:47.321Z,3.07
2019-01-09T06:14:16.472Z,3.53
2019-01-09T06:16:45.698Z,2.60
2019-01-09T06:19:14.955Z,5.50
2019-01-09T06:21:44.179Z,6.33
2019-01-09T06:24:13.523Z,3.63
2019-01-09T06:26:42.676Z,5.47
2019-01-09T06:29:11.873Z,4.07
2019-01-09T06:31:41.117Z,2.60
2019-01-09T06:34:10.256Z,2.90
2019-01-09T06:36:39.422Z,2.53
2019-01-09T06:39:08.567Z,3.10
2019-01-09T06:41:37.753Z,2.63
2019-01-09T06:44:06.924Z,5.30
2019-01-09T06:46:36.120Z,3.20
2019-01-09T06:49:05.464Z,4.53
2019-01-09T06:51:34.639Z,4.00
2019-01-09T06:54:03.933Z,3.60
2019-01-09T06:56:33.122Z,3.10
2019-01-09T06:59:02.294Z,4.57
2019-01-09T07:01:31.616Z,6.97
2019-01-09T07:04:00.831Z,2.30
2019-01-09T07:06:30.049Z,2.43
2019-01-09T07:08:59.207Z,1.50
2019-01-09T07:11:28.389Z,1.60
2019-01-09T07:13:57.617Z,3.70
2019-01-09T07:16:26.923Z,2.80
2019-01-09T07:18:56.077Z,1.93
2019-01-09T07:21:25.271Z,1.23
2019-01-09T07:23:54.545Z,1.57
2019-01-09T07:26:24.267Z,2.40
2019-01-09T07:28:53.587Z,1.23
2019-01-09T07:31:22.881Z,1.40
2019-01-09T07:33:52.085Z,2.00
2019-01-09T07:36:21.289Z,3.83
2019-01-09T07:38:50.487Z,1.53
2019-01-09T07:41:19.701Z,4.30
2019-01-09T07:43:48.956Z,2.47
2019-01-09T07:46:18.127Z,3.37
2019-01-09T07:48:47.339Z,2.63
2019-01-09T07:51:16.563Z,4.30
2019-01-09T07:53:45.942Z,2.10
2019-01-09T07:56:15.139Z,2.07
2019-01-09T07:58:44.335Z,2.83
2019-01-09T08:01:13.593Z,3.10
2019-01-09T08:03:42.901Z,2.77
2019-01-09T08:06:12.075Z,3.00
2019-01-09T08:08:41.384Z,2.37
2019-01-09T08:11:10.551Z,2.70
2019-01-09T08:13:39.836Z,3.20
2019-01-09T08:16:09.189Z,3.37
2019-01-09T08:18:38.367Z,1.87
2019-01-09T08:21:07.587Z,4.27
2019-01-09T08:23:36.893Z,8.93
2019-01-09T08:26:06.129Z,2.40
2019-01-09T08:28:35.328Z,1.40
2019-01-09T08:31:04.588Z,2.90
2019-01-09T08:33:33.925Z,4.10
2019-01-09T08:36:03.245Z,5.13
2019-01-09T08:38:32.483Z,2.73
2019-01-09T08:41:01.799Z,4.50
2019-01-09T08:43:30.960Z,3.60
2019-01-09T08:46:00.335Z,2.23
2019-01-09T08:48:29.551Z,5.50
2019-01-09T08:50:58.781Z,3.47
2019-01-09T08:53:28.035Z,3.00
2019-01-09T08:55:57.280Z,1.70
2019-01-09T08:58:26.453Z,6.63
2019-01-09T09:00:55.567Z,4.80
2019-01-09T09:03:24.719Z,3.57
2019-01-09T09:05:53.931Z,3.30
2019-01-09T09:08:24.763Z,1.73
2019-01-09T09:10:53.951Z,5.00
2019-01-09T09:13:37.795Z,5.10
2019-01-09T09:16:13.771Z,2.93
2019-01-09T09:18:42.927Z,3.07
2019-01-09T09:21:12.088Z,3.23
2019-01-09T09:23:41.316Z,2.33
2019-01-09T09:26:10.471Z,3.27
2019-01-09T09:28:39.659Z,3.93
2019-01-09T09:31:08.873Z,1.67
2019-01-09T09:33:38.115Z,1.50
2019-01-09T09:36:07.452Z,2.20
2019-01-09T09:38:36.648Z,2.40
2019-01-09T09:41:05.890Z,4.40
2019-01-09T09:43:35.083Z,2.53
2019-01-09T09:46:04.309Z,3.17
2019-01-09T09:48:33.495Z,1.97
2019-01-09T09:51:02.763Z,4.17
2019-01-09T09:53:32.057Z,2.50
2019-01-09T09:56:01.239Z,2.17
2019-01-09T09:58:30.568Z,4.33
2019-01-09T10:00:59.960Z,3.27
2019-01-09T10:03:29.139Z,3.47
2019-01-09T10:05:58.315Z,4.20
2019-01-09T10:08:29.531Z,4.17
2019-01-09T10:10:58.361Z,3.10
2019-01-09T10:13:27.597Z,3.17
2019-01-09T10:15:56.846Z,2.70
2019-01-09T10:18:25.989Z,5.20
2019-01-09T10:20:55.223Z,4.40
2019-01-09T10:23:24.407Z,2.20
2019-01-09T10:25:53.567Z,4.93
2019-01-09T10:28:22.789Z,4.60
2019-01-09T10:30:51.996Z,1.93
2019-01-09T10:33:21.236Z,2.47
2019-01-09T10:35:50.367Z,2.60
2019-01-09T10:38:19.551Z,4.23
2019-01-09T10:40:48.753Z,3.97
2019-01-09T10:43:17.992Z,3.43
2019-01-09T10:45:50.103Z,3.00
2019-01-09T10:48:19.275Z,3.63
2019-01-09T10:50:48.416Z,3.50
2019-01-09T10:53:17.559Z,3.03
2019-01-09T10:55:46.811Z,2.73
2019-01-09T10:58:16.007Z,2.30
2019-01-09T11:00:45.271Z,2.70
2019-01-09T11:03:14.447Z,3.90
2019-01-09T11:05:43.587Z,2.10
2019-01-09T11:08:12.813Z,3.60
2019-01-09T11:10:42.135Z,3.30
2019-01-09T11:13:11.682Z,2.87
2019-01-09T11:15:40.867Z,4.00
2019-01-09T11:18:10.986Z,6.23
2019-01-09T11:20:40.141Z,2.67
2019-01-09T11:23:09.399Z,2.70
2019-01-09T11:25:38.538Z,5.37
2019-01-09T11:28:07.809Z,5.00
2019-01-09T11:30:36.955Z,4.23
2019-01-09T11:33:06.122Z,2.67
2019-01-09T11:35:35.388Z,3.97
2019-01-09T11:38:04.593Z,2.07
2019-01-09T11:40:33.853Z,3.60
2019-01-09T11:43:03.800Z,2.77
2019-01-09T11:45:33.235Z,3.80
2019-01-09T11:48:02.561Z,2.90
2019-01-09T11:50:31.818Z,3.60
2019-01-09T11:53:01.009Z,7.30
2019-01-09T11:55:30.181Z,3.93
2019-01-09T11:57:59.392Z,3.37
2019-01-09T12:00:29.558Z,2.03
2019-01-09T12:02:58.783Z,4.27
2019-01-09T12:05:28.034Z,3.37
2019-01-09T12:07:57.206Z,3.40
2019-01-09T12:10:30.193Z,4.37
2019-01-09T12:12:58.318Z,4.43
2019-01-09T12:15:27.591Z,5.27
2019-01-09T12:17:56.805Z,3.23
2019-01-09T12:20:26.148Z,7.27
2019-01-09T12:22:55.302Z,3.93
2019-01-09T12:25:24.474Z,4.20
2019-01-09T12:27:53.599Z,3.60
2019-01-09T12:30:29.549Z,3.87
2019-01-09T12:32:58.900Z,3.50
2019-01-09T12:35:28.191Z,4.60
2019-01-09T12:37:57.377Z,4.37
2019-01-09T12:40:26.687Z,4.07
2019-01-09T12:42:55.858Z,4.60
2019-01-09T12:45:25.118Z,3.90
2019-01-09T12:47:54.351Z,3.93
2019-01-09T12:50:25.486Z,5.63
2019-01-09T12:52:54.613Z,4.40
2019-01-09T12:55:23.821Z,5.03
2019-01-09T12:57:53.031Z,6.33
2019-01-09T13:00:24.535Z,4.23
2019-01-09T13:02:53.903Z,4.10
2019-01-09T13:05:23.501Z,3.63
2019-01-09T13:07:52.734Z,3.73
2019-01-09T13:10:22.019Z,4.10
2019-01-09T13:12:52.727Z,3.80
2019-01-09T13:15:22.303Z,4.40
2019-01-09T13:17:51.623Z,3.17
2019-01-09T13:20:20.884Z,3.37
2019-01-09T13:22:50.086Z,5.07
2019-01-09T13:25:19.490Z,4.47
2019-01-09T13:27:48.774Z,3.70
2019-01-09T13:30:20.101Z,4.90
2019-01-09T13:32:49.384Z,5.47
2019-01-09T13:35:18.631Z,4.07
2019-01-09T13:37:47.801Z,3.67
2019-01-09T13:40:18.446Z,6.40
2019-01-09T13:42:47.906Z,5.10
2019-01-09T13:45:19.372Z,5.20
2019-01-09T13:47:48.832Z,3.03
2019-01-09T13:50:18.625Z,4.70
2019-01-09T13:52:47.946Z,4.60
2019-01-09T13:55:17.114Z,5.13
2019-01-09T13:57:46.407Z,5.30
2019-01-09T14:00:17.917Z,4.27
2019-01-09T14:02:47.142Z,4.40
2019-01-09T14:05:16.759Z,4.67
2019-01-09T14:07:46.046Z,3.40
2019-01-09T14:10:26.364Z,4.53
2019-01-09T14:12:55.603Z,6.07
2019-01-09T14:15:24.890Z,4.97
2019-01-09T14:17:54.191Z,5.73
2019-01-09T14:20:23.460Z,8.57
2019-01-09T14:22:52.705Z,2.93
2019-01-09T14:25:22.031Z,3.23
2019-01-09T14:27:51.346Z,5.10
2019-01-09T14:30:25.888Z,4.83
2019-01-09T14:32:55.145Z,3.70
2019-01-09T14:35:24.342Z,6.10
2019-01-09T14:37:53.693Z,4.30
2019-01-09T14:40:23.002Z,5.40
2019-01-09T14:42:52.284Z,5.47
2019-01-09T14:45:21.520Z,4.20
2019-01-09T14:47:50.652Z,7.13
2019-01-09T14:50:23.373Z,4.53
2019-01-09T14:52:52.566Z,5.10
2019-01-09T14:55:21.952Z,5.00
2019-01-09T14:57:51.225Z,4.50
2019-01-09T15:00:22.562Z,5.53
2019-01-09T15:02:52.473Z,4.80
2019-01-09T15:05:21.903Z,6.13
2019-01-09T15:07:51.233Z,5.90
2019-01-09T15:10:22.861Z,5.67
2019-01-09T15:12:52.243Z,4.60
2019-01-09T15:15:21.737Z,5.33
2019-01-09T15:17:50.995Z,9.67
2019-01-09T15:20:20.410Z,5.10
2019-01-09T15:22:49.639Z,7.43
2019-01-09T15:25:19.188Z,8.70
2019-01-09T15:27:48.746Z,8.50
2019-01-09T15:30:23.486Z,7.83
2019-01-09T15:32:52.678Z,8.57
2019-01-09T15:35:21.880Z,7.47
2019-01-09T15:37:51.185Z,7.37
2019-01-09T15:40:22.728Z,6.43
2019-01-09T15:42:51.991Z,9.07
2019-01-09T15:45:21.299Z,6.97
2019-01-09T15:47:50.460Z,7.93
2019-01-09T15:50:20.723Z,8.37
2019-01-09T15:52:49.962Z,7.47
2019-01-09T15:55:19.448Z,6.17
2019-01-09T15:57:49.170Z,7.33
2019-01-09T16:00:48.097Z,5.83
2019-01-09T16:03:17.582Z,16.00
2019-01-09T16:05:46.752Z,8.17
2019-01-09T16:08:15.997Z,7.70
2019-01-09T16:10:45.206Z,7.37
2019-01-09T16:13:14.426Z,8.63
2019-01-09T16:15:43.655Z,6.17
2019-01-09T16:18:12.917Z,9.80
2019-01-09T16:20:42.137Z,8.00
2019-01-09T16:23:11.339Z,6.30
2019-01-09T16:25:40.602Z,7.83
2019-01-09T16:28:09.790Z,7.97
2019-01-09T16:31:12.933Z,4.90
2019-01-09T16:33:42.168Z,5.70
2019-01-09T16:36:12.155Z,6.10
2019-01-09T16:38:41.433Z,4.70
2019-01-09T16:41:10.556Z,6.87
2019-01-09T16:43:39.735Z,7.53
2019-01-09T16:46:08.963Z,5.93
2019-01-09T16:48:39.654Z,8.67
2019-01-09T16:51:09.058Z,6.70
2019-01-09T16:53:38.369Z,6.13
2019-01-09T16:56:08.489Z,5.33
2019-01-09T16:58:37.894Z,8.47
2019-01-09T17:01:07.808Z,6.40
2019-01-09T17:03:39.089Z,6.53
2019-01-09T17:06:08.778Z,8.83
2019-01-09T17:08:38.096Z,9.17
2019-01-09T17:11:07.340Z,6.80
2019-01-09T17:13:36.617Z,6.23
2019-01-09T17:16:06.069Z,9.00
2019-01-09T17:18:35.317Z,7.93
2019-01-09T17:21:04.710Z,7.23
2019-01-09T17:23:34.052Z,6.77
2019-01-09T17:26:03.340Z,10.20
2019-01-09T17:28:32.707Z,26.13
2019-01-09T17:31:02.094Z,38.87
2019-01-09T17:33:31.354Z,29.00
2019-01-09T17:36:00.534Z,8.80
2019-01-09T17:38:29.822Z,14.03
2019-01-09T17:40:59.161Z,8.27
2019-01-09T17:43:28.522Z,9.17
2019-01-09T17:45:57.726Z,8.70
2019-01-09T17:48:27.406Z,8.93
2019-01-09T17:50:56.651Z,10.40
2019-01-09T17:53:25.984Z,11.37
2019-01-09T17:55:55.439Z,9.57
2019-01-09T17:58:24.723Z,8.27
2019-01-09T18:00:54.036Z,7.97
2019-01-09T18:03:23.504Z,9.17
2019-01-09T18:05:52.682Z,9.10
2019-01-09T18:08:21.935Z,9.10
2019-01-09T18:10:51.602Z,9.67
2019-01-09T18:13:20.836Z,11.83
2019-01-09T18:15:50.098Z,10.50
2019-01-09T18:18:19.528Z,10.57
2019-01-09T18:20:48.842Z,8.00
2019-01-09T18:23:18.103Z,11.00
2019-01-09T18:25:47.338Z,7.27
2019-01-09T18:28:16.989Z,7.60
2019-01-09T18:31:19.835Z,9.10
2019-01-09T18:34:19.801Z,9.28
2019-01-09T18:37:10.444Z,7.87
2019-01-09T18:40:33.182Z,5.97
2019-01-09T18:43:37.216Z,7.17
2019-01-09T18:46:40.943Z,7.47
2019-01-09T18:49:42.489Z,7.30
2019-01-09T18:52:23.863Z,9.70
2019-01-09T18:54:53.165Z,6.00
2019-01-09T18:57:22.394Z,11.80
2019-01-09T18:59:51.651Z,8.07
2019-01-09T19:02:20.952Z,5.80
2019-01-09T19:04:50.615Z,6.67
2019-01-09T19:07:20.291Z,6.33
2019-01-09T19:09:49.487Z,6.43
2019-01-09T19:12:18.674Z,7.60
2019-01-09T19:14:48.005Z,7.50
2019-01-09T19:17:17.438Z,7.97
2019-01-09T19:19:46.768Z,6.73
2019-01-09T19:22:16.151Z,8.07
2019-01-09T19:24:45.396Z,8.23
2019-01-09T19:27:14.655Z,8.90
2019-01-09T19:29:43.896Z,28.80
2019-01-09T19:32:13.171Z,11.10
2019-01-09T19:34:42.558Z,17.67
2019-01-09T19:37:11.816Z,13.80
2019-01-09T19:39:41.072Z,36.50
2019-01-09T19:42:10.371Z,33.50
2019-01-09T19:44:39.632Z,12.03
2019-01-09T19:47:08.934Z,7.83
2019-01-09T19:49:38.140Z,6.67
2019-01-09T19:52:07.408Z,9.97
2019-01-09T19:54:36.592Z,7.10
2019-01-09T19:57:05.927Z,8.80
2019-01-09T19:59:35.181Z,7.10
2019-01-09T20:02:04.487Z,7.63
2019-01-09T20:04:33.804Z,8.50
2019-01-09T20:07:03.096Z,9.50
2019-01-09T20:09:32.412Z,7.33
2019-01-09T20:12:01.683Z,9.17
2019-01-09T20:14:30.950Z,9.17
2019-01-09T20:17:00.245Z,10.60
2019-01-09T20:19:29.408Z,7.33
2019-01-09T20:21:58.873Z,8.33
2019-01-09T20:24:28.209Z,44.50
2019-01-09T20:26:57.496Z,7.37
2019-01-09T20:29:26.778Z,9.43
2019-01-09T20:31:56.078Z,9.23
2019-01-09T20:34:25.431Z,13.00
2019-01-09T20:36:54.722Z,8.13
2019-01-09T20:39:24.094Z,12.83
2019-01-09T20:41:53.364Z,13.03
2019-01-09T20:44:22.578Z,22.37
2019-01-09T20:46:51.793Z,10.50
2019-01-09T20:49:21.072Z,7.43
2019-01-09T20:51:50.477Z,6.73
2019-01-09T20:54:19.826Z,7.23
2019-01-09T20:56:49.146Z,6.10
2019-01-09T20:59:18.421Z,6.03
2019-01-09T21:01:47.618Z,5.90
2019-01-09T21:04:25.897Z,6.87
2019-01-09T21:06:55.250Z,5.67
2019-01-09T21:09:24.645Z,12.17
2019-01-09T21:11:53.908Z,6.50
2019-01-09T21:14:23.352Z,7.33
2019-01-09T21:16:53.012Z,7.70
2019-01-09T21:19:22.336Z,6.90
2019-01-09T21:21:51.672Z,7.43
2019-01-09T21:24:20.896Z,12.47
2019-01-09T21:26:50.622Z,9.67
2019-01-09T21:29:19.988Z,9.80
2019-01-09T21:31:49.558Z,7.77
2019-01-09T21:34:18.754Z,8.00
2019-01-09T21:36:48.034Z,7.67
2019-01-09T21:39:17.375Z,8.03
2019-01-09T21:41:53.190Z,7.93
2019-01-09T21:44:18.237Z,8.57
2019-01-09T21:46:47.630Z,9.77
2019-01-09T21:49:16.783Z,7.50
2019-01-09T21:51:46.127Z,6.73
2019-01-09T21:54:15.338Z,7.13
2019-01-09T21:56:44.623Z,6.57
2019-01-09T21:59:13.880Z,9.03
2019-01-09T22:01:43.151Z,10.60
2019-01-09T22:04:12.422Z,9.30
2019-01-09T22:06:41.665Z,9.33
2019-01-09T22:09:11.038Z,9.07
2019-01-09T22:11:40.417Z,10.20
2019-01-09T22:14:09.735Z,8.30
2019-01-09T22:16:39.027Z,10.17
2019-01-09T22:19:12.147Z,8.53
2019-01-09T22:21:39.467Z,7.83
2019-01-09T22:24:08.732Z,7.10
2019-01-09T22:26:37.982Z,7.97
2019-01-09T22:29:07.252Z,8.63
2019-01-09T22:31:36.402Z,8.63
2019-01-09T22:34:08.515Z,7.87
2019-01-09T22:36:37.910Z,8.07
2019-01-09T22:39:09.153Z,8.63
2019-01-09T22:41:38.408Z,8.80
2019-01-09T22:44:07.617Z,9.60
2019-01-09T22:46:36.854Z,7.63
2019-01-09T22:49:06.036Z,8.40
2019-01-09T22:51:35.321Z,9.33
2019-01-09T22:54:04.459Z,7.77
2019-01-09T22:56:33.681Z,9.97
2019-01-09T22:59:03.310Z,7.87
2019-01-09T23:01:32.878Z,10.17
2019-01-09T23:04:02.566Z,8.60
2019-01-09T23:06:31.758Z,10.70
2019-01-09T23:09:00.986Z,8.60
2019-01-09T23:11:30.231Z,8.90
2019-01-09T23:13:59.450Z,8.47
2019-01-09T23:16:28.607Z,12.53
2019-01-09T23:18:57.836Z,10.00
2019-01-09T23:21:27.259Z,8.77
2019-01-09T23:23:56.565Z,9.67
2019-01-09T23:26:27.101Z,10.00
2019-01-09T23:28:56.354Z,9.07
2019-01-09T23:31:25.802Z,8.93
2019-01-09T23:33:55.119Z,9.63
2019-01-09T23:36:24.505Z,10.47
2019-01-09T23:38:53.915Z,9.80
2019-01-09T23:41:23.169Z,12.33
2019-01-09T23:43:52.407Z,8.67
2019-01-09T23:46:21.744Z,7.97
2019-01-09T23:48:51.095Z,11.03
2019-01-09T23:51:20.239Z,9.57
2019-01-09T23:53:49.513Z,11.13
2019-01-09T23:56:18.713Z,10.00
2019-01-09T23:58:47.943Z,10.53
